Time;durP1;ratioP1;P1;durP2;ratioP2;P2;SDS_P1;SDS_P2;PMS_P1;PMS_P2;Temp;Humidity;BMP_temperature;BMP_pressure;BME280_temperature;BME280_humidity;BME280_pressure;Samples;Min_cycle;Max_cycle;Signal;HPM_P1;HPM_P2
2024/04/17 00:00:20;;;;;;;5.23;2.50;;;17.70;53.60;;;;;;5308387;26;20499;-77
2024/04/17 00:19:09;;;;;;;6.33;2.30;;;15.20;45.40;;;;;;5586307;25;20459;-78
2024/04/17 00:21:36;;;;;;;3.97;1.97;;;12.20;53.50;;;;;;5583197;25;20451;-78
2024/04/17 00:24:06;;;;;;;5.50;1.93;;;12.30;52.60;;;;;;5569978;25;20475;-77
2024/04/17 00:26:34;;;;;;;4.87;2.00;;;12.10;52.40;;;;;;5582498;25;20455;-78
2024/04/17 00:29:04;;;;;;;4.07;1.80;;;12.10;53.10;;;;;;5586237;25;20560;-81
2024/04/17 00:31:31;;;;;;;6.93;2.00;;;12.10;52.90;;;;;;5582333;25;20518;-79
2024/04/17 00:34:02;;;;;;;4.97;1.87;;;12.20;52.50;;;;;;5582626;25;20530;-77
2024/04/17 00:36:32;;;;;;;4.70;1.50;;;12.10;52.10;;;;;;5582329;25;20470;-79
2024/04/17 00:39:03;;;;;;;3.53;1.50;;;12.00;52.90;;;;;;5583425;25;20490;-79
2024/04/17 00:41:31;;;;;;;4.83;2.17;;;11.50;53.10;;;;;;5583253;25;20450;-78
2024/04/17 00:44:01;;;;;;;4.20;1.77;;;11.20;54.50;;;;;;5583386;25;20450;-79
2024/04/17 00:46:30;;;;;;;8.40;2.30;;;11.10;55.50;;;;;;5583983;25;20491;-78
2024/04/17 00:49:03;;;;;;;6.73;2.10;;;11.10;55.10;;;;;;5583014;25;20470;-79
2024/04/17 00:51:34;;;;;;;4.67;2.10;;;10.90;55.30;;;;;;5582417;25;20447;-78
2024/04/17 00:54:04;;;;;;;14.33;2.53;;;10.80;55.60;;;;;;5584085;25;20536;-78
2024/04/17 00:56:31;;;;;;;5.23;1.60;;;10.70;56.50;;;;;;5582853;25;20450;-79
2024/04/17 00:59:01;;;;;;;6.20;2.00;;;10.90;56.50;;;;;;5580750;25;20521;-76
2024/04/17 01:01:28;;;;;;;7.57;2.03;;;11.10;56.00;;;;;;5581200;25;20474;-78
2024/04/17 01:03:58;;;;;;;3.60;1.67;;;11.30;54.90;;;;;;5581257;25;20466;-76
2024/04/17 01:06:26;;;;;;;3.10;1.93;;;11.40;54.70;;;;;;5581261;25;20495;-78
2024/04/17 01:08:59;;;;;;;5.03;2.20;;;11.30;55.00;;;;;;5580974;25;20486;-78
2024/04/17 01:11:26;;;;;;;10.53;2.53;;;10.90;54.80;;;;;;5581851;25;20490;-79
2024/04/17 01:13:56;;;;;;;7.30;1.93;;;10.70;56.50;;;;;;5581511;25;20447;-75
2024/04/17 01:16:23;;;;;;;6.27;1.97;;;10.80;58.90;;;;;;5558454;25;20509;-76
2024/04/17 01:18:53;;;;;;;8.13;1.80;;;11.70;59.50;;;;;;5558040;25;20522;-75
2024/04/17 01:21:21;;;;;;;7.13;1.90;;;12.40;57.60;;;;;;5556657;25;20584;-75
2024/04/17 01:23:55;;;;;;;3.47;1.80;;;13.00;56.20;;;;;;5565141;25;20499;-75
2024/04/17 01:26:23;;;;;;;3.43;1.97;;;13.40;54.60;;;;;;5564751;25;20511;-75
2024/04/17 01:28:53;;;;;;;1.93;1.70;;;13.70;53.50;;;;;;5565519;25;20475;-75
2024/04/17 01:31:21;;;;;;;5.90;1.67;;;13.90;52.80;;;;;;5566045;25;20495;-76
2024/04/17 01:33:51;;;;;;;5.80;1.93;;;14.20;52.10;;;;;;5566057;25;20986;-76
2024/04/17 01:36:19;;;;;;;2.63;1.57;;;14.40;51.60;;;;;;5564603;25;20517;-75
2024/04/17 01:38:49;;;;;;;2.37;1.60;;;14.50;51.00;;;;;;5564745;25;20463;-76
2024/04/17 01:41:19;;;;;;;3.23;1.83;;;14.70;50.70;;;;;;5564435;25;20531;-76
2024/04/17 01:43:49;;;;;;;18.83;2.73;;;14.80;50.30;;;;;;5564724;25;20518;-77
2024/04/17 01:46:17;;;;;;;3.53;2.10;;;14.90;50.10;;;;;;5566070;25;20501;-76
2024/04/17 01:48:47;;;;;;;3.33;1.80;;;15.00;50.00;;;;;;5566025;25;20511;-76
2024/04/17 01:51:15;;;;;;;8.50;2.03;;;15.10;50.40;;;;;;5564417;25;20459;-76
2024/04/17 01:53:45;;;;;;;3.63;2.27;;;15.10;49.60;;;;;;5565737;25;20547;-73
2024/04/17 01:56:12;;;;;;;3.77;2.10;;;15.10;49.40;;;;;;5565192;25;20444;-76
2024/04/17 01:58:46;;;;;;;10.17;2.10;;;15.20;49.30;;;;;;5564663;25;20579;-76
2024/04/17 02:01:13;;;;;;;17.10;2.63;;;15.20;49.20;;;;;;5564857;25;20990;-76
2024/04/17 02:03:43;;;;;;;5.50;2.67;;;15.30;49.40;;;;;;5565127;25;20518;-75
2024/04/17 02:06:11;;;;;;;5.33;3.00;;;15.30;49.10;;;;;;5563946;25;20532;-79
2024/04/17 02:08:41;;;;;;;8.10;2.60;;;15.40;49.30;;;;;;5565689;25;20568;-76
2024/04/17 02:11:08;;;;;;;4.90;2.40;;;15.40;49.00;;;;;;5559297;25;20451;-75
2024/04/17 02:13:38;;;;;;;7.53;2.70;;;15.40;49.20;;;;;;5562908;25;20797;-76
2024/04/17 02:16:09;;;;;;;3.87;2.27;;;15.40;49.00;;;;;;5564843;25;20455;-76
2024/04/17 02:18:42;;;;;;;9.07;3.27;;;15.50;49.10;;;;;;5563988;25;20516;-75
2024/04/17 02:21:09;;;;;;;4.50;2.87;;;15.50;48.80;;;;;;5564346;25;20537;-76
2024/04/17 02:23:39;;;;;;;5.70;2.70;;;15.50;49.20;;;;;;5564238;25;20496;-76
2024/04/17 02:26:06;;;;;;;11.50;2.10;;;15.50;49.00;;;;;;5564079;25;20447;-77
2024/04/17 02:28:36;;;;;;;5.07;2.60;;;15.50;49.00;;;;;;5564029;25;20474;-76
2024/04/17 02:31:04;;;;;;;4.47;2.87;;;15.50;48.90;;;;;;5562488;25;20450;-76
2024/04/17 02:33:37;;;;;;;5.90;2.67;;;15.60;49.10;;;;;;5563767;25;20555;-77
2024/04/17 02:36:05;;;;;;;4.13;2.97;;;15.60;49.70;;;;;;5563387;25;20577;-75
2024/04/17 02:38:35;;;;;;;6.63;2.70;;;15.60;48.90;;;;;;5563405;25;20460;-76
2024/04/17 02:41:03;;;;;;;4.70;2.67;;;15.60;49.00;;;;;;5562976;25;20451;-75
2024/04/17 02:43:33;;;;;;;2.50;2.30;;;15.60;49.00;;;;;;5563496;25;20459;-76
2024/04/17 02:46:01;;;;;;;7.70;3.40;;;15.60;49.10;;;;;;5563641;25;20451;-77
2024/04/17 02:48:31;;;;;;;3.63;2.50;;;15.60;49.00;;;;;;5562767;25;20471;-77
2024/04/17 02:51:01;;;;;;;7.30;3.07;;;15.60;49.10;;;;;;5555553;25;20508;-77
2024/04/17 02:53:31;;;;;;;5.33;2.83;;;15.60;49.60;;;;;;5563148;25;20877;-77
2024/04/17 02:55:59;;;;;;;5.80;3.10;;;15.60;48.80;;;;;;5563585;25;20451;-78
2024/04/17 02:58:29;;;;;;;6.37;2.80;;;15.60;49.20;;;;;;5562913;25;20451;-78
2024/04/17 03:00:56;;;;;;;5.43;2.80;;;15.60;49.00;;;;;;5562712;25;20499;-77
2024/04/17 03:03:27;;;;;;;6.30;2.90;;;15.60;49.10;;;;;;5562460;25;20447;-76
2024/04/17 03:05:54;;;;;;;6.13;3.00;;;15.60;49.10;;;;;;5562164;25;20443;-76
2024/04/17 03:08:27;;;;;;;7.17;3.13;;;15.60;48.80;;;;;;5562913;25;21010;-76
2024/04/17 03:10:57;;;;;;;6.17;3.30;;;15.60;49.10;;;;;;5562833;25;20447;-77
2024/04/17 03:13:27;;;;;;;11.43;3.17;;;15.60;49.20;;;;;;5562567;25;20455;-76
2024/04/17 03:15:55;;;;;;;8.53;3.13;;;15.60;49.20;;;;;;5562685;25;20511;-76
2024/04/17 03:18:25;;;;;;;7.87;2.97;;;15.60;49.20;;;;;;5562089;25;20455;-75
2024/04/17 03:20:52;;;;;;;6.93;2.83;;;15.60;49.20;;;;;;5563428;25;20436;-76
2024/04/17 03:23:25;;;;;;;4.90;2.53;;;15.60;49.00;;;;;;5562980;25;20463;-77
2024/04/17 03:25:56;;;;;;;6.20;3.70;;;15.50;49.30;;;;;;5563094;25;20524;-75
2024/04/17 03:28:26;;;;;;;4.50;3.17;;;15.60;49.20;;;;;;5561811;25;21115;-76
2024/04/17 03:30:54;;;;;;;4.30;2.90;;;15.60;49.20;;;;;;5562510;25;20471;-76
2024/04/17 03:33:24;;;;;;;5.47;3.43;;;15.60;49.20;;;;;;5563292;25;20555;-77
2024/04/17 03:35:55;;;;;;;5.57;3.17;;;15.60;49.10;;;;;;5562691;25;20455;-76
2024/04/17 03:38:28;;;;;;;5.40;3.10;;;15.60;49.20;;;;;;5533892;25;20475;-76
2024/04/17 03:40:58;;;;;;;6.20;2.93;;;15.60;49.20;;;;;;5563124;25;20488;-76
2024/04/17 03:43:28;;;;;;;6.73;3.63;;;15.60;49.30;;;;;;5562772;25;20463;-78
2024/04/17 03:45:58;;;;;;;7.10;3.70;;;15.60;49.40;;;;;;5556662;25;20522;-76
2024/04/17 03:48:28;;;;;;;7.17;3.13;;;15.50;49.10;;;;;;5560029;25;20569;-76
2024/04/17 03:50:56;;;;;;;7.07;3.47;;;15.50;49.30;;;;;;5548230;25;20459;-77
2024/04/17 03:53:29;;;;;;;8.47;3.40;;;15.50;49.20;;;;;;5562233;25;20467;-76
2024/04/17 03:55:56;;;;;;;4.10;3.50;;;15.50;49.60;;;;;;5552782;25;20560;-77
2024/04/17 03:58:26;;;;;;;5.60;3.80;;;15.60;49.50;;;;;;5562427;25;20459;-77
2024/04/17 04:00:53;;;;;;;11.90;4.03;;;15.50;49.20;;;;;;5547014;25;20523;-76
2024/04/17 04:03:23;;;;;;;8.53;3.90;;;15.50;49.20;;;;;;5562932;25;20463;-76
2024/04/17 04:05:50;;;;;;;8.83;3.90;;;15.50;49.20;;;;;;5549663;25;20527;-77
2024/04/17 04:08:20;;;;;;;9.73;3.87;;;15.50;49.60;;;;;;5560137;25;20471;-76
2024/04/17 04:10:51;;;;;;;8.83;3.37;;;15.50;49.50;;;;;;5562360;25;20463;-75
2024/04/17 04:13:21;;;;;;;11.40;4.27;;;15.50;49.50;;;;;;5560400;25;20534;-76
2024/04/17 04:15:51;;;;;;;9.57;4.37;;;15.50;49.60;;;;;;5562309;25;20471;-76
2024/04/17 04:18:21;;;;;;;6.97;4.00;;;15.50;49.40;;;;;;5562258;25;20568;-77
2024/04/17 04:20:49;;;;;;;7.53;3.80;;;15.50;49.30;;;;;;5562126;25;20541;-78
2024/04/17 04:23:19;;;;;;;6.70;3.87;;;15.50;49.60;;;;;;5556762;25;20500;-76
2024/04/17 04:25:47;;;;;;;6.53;3.80;;;15.50;49.50;;;;;;5560418;25;20443;-77
2024/04/17 04:28:20;;;;;;;8.87;4.40;;;15.50;49.60;;;;;;5561192;25;20582;-76
2024/04/17 04:30:47;;;;;;;5.97;3.90;;;15.60;49.60;;;;;;5560585;25;20508;-75
2024/04/17 04:33:17;;;;;;;6.23;4.00;;;15.60;49.50;;;;;;5563135;25;20520;-76
2024/04/17 04:35:45;;;;;;;8.13;4.23;;;15.50;49.40;;;;;;5561658;25;20464;-74
2024/04/17 04:38:15;;;;;;;5.13;3.50;;;15.50;49.60;;;;;;5561731;25;20560;-75
2024/04/17 04:40:42;;;;;;;6.70;3.60;;;15.50;49.40;;;;;;5559057;25;21092;-78
2024/04/17 04:43:12;;;;;;;6.40;3.67;;;15.40;49.60;;;;;;5560995;25;20540;-75
2024/04/17 04:45:42;;;;;;;6.17;3.47;;;15.50;49.60;;;;;;5561681;25;20475;-76
2024/04/17 04:48:12;;;;;;;6.90;3.83;;;15.50;49.60;;;;;;5560932;25;20513;-77
2024/04/17 04:50:39;;;;;;;6.10;3.90;;;15.60;49.60;;;;;;5561605;25;20463;-75
2024/04/17 04:53:09;;;;;;;5.80;3.90;;;15.50;49.60;;;;;;5560675;25;20467;-77
2024/04/17 04:55:37;;;;;;;5.97;3.80;;;15.60;49.60;;;;;;5565422;25;20467;-77
2024/04/17 04:58:07;;;;;;;6.47;4.20;;;15.60;49.60;;;;;;5565043;25;20475;-75
2024/04/17 05:00:34;;;;;;;10.53;4.20;;;15.60;49.70;;;;;;5564850;25;20514;-76
2024/04/17 05:03:07;;;;;;;7.60;4.47;;;15.60;49.60;;;;;;5549728;25;20467;-77
2024/04/17 05:05:35;;;;;;;8.40;4.30;;;15.60;49.60;;;;;;5564951;25;20530;-77
2024/04/17 05:08:05;;;;;;;6.80;3.53;;;15.60;49.50;;;;;;5565050;25;20513;-76
2024/04/17 05:10:32;;;;;;;7.63;3.77;;;15.60;49.40;;;;;;5565378;25;20530;-77
2024/04/17 05:13:03;;;;;;;6.50;3.60;;;15.50;49.60;;;;;;5563377;25;20448;-75
2024/04/17 05:15:30;;;;;;;5.77;3.70;;;15.50;49.70;;;;;;5565136;25;20456;-78
2024/04/17 05:18:00;;;;;;;6.30;3.57;;;15.60;49.80;;;;;;5550572;25;20474;-76
2024/04/17 05:20:31;;;;;;;6.53;3.90;;;15.50;49.60;;;;;;5557286;25;20479;-77
2024/04/17 05:23:01;;;;;;;5.80;4.10;;;15.60;49.70;;;;;;5564948;25;20475;-76
2024/04/17 05:25:29;;;;;;;4.53;3.43;;;15.60;49.80;;;;;;5564792;25;20455;-77
2024/04/17 05:27:59;;;;;;;7.30;3.80;;;15.60;49.70;;;;;;5564204;25;20451;-76
2024/04/17 05:30:26;;;;;;;6.20;3.60;;;15.60;49.60;;;;;;5566906;25;20564;-76
2024/04/17 05:32:56;;;;;;;6.47;3.73;;;15.60;49.60;;;;;;5566567;25;20555;-77
2024/04/17 05:35:23;;;;;;;5.50;3.70;;;15.70;49.80;;;;;;5564993;25;20510;-76
2024/04/17 05:37:56;;;;;;;5.03;3.40;;;15.70;49.60;;;;;;5566689;25;20455;-76
2024/04/17 05:40:23;;;;;;;7.87;4.33;;;15.70;49.80;;;;;;5555922;25;20463;-78
2024/04/17 05:42:53;;;;;;;5.87;3.40;;;15.80;49.70;;;;;;5565166;25;20505;-76
2024/04/17 05:45:21;;;;;;;5.87;3.70;;;15.80;49.40;;;;;;5564987;25;20572;-77
2024/04/17 05:47:51;;;;;;;6.57;3.40;;;15.80;49.80;;;;;;5564874;25;20475;-76
2024/04/17 05:50:19;;;;;;;4.87;3.07;;;15.80;49.70;;;;;;5554862;25;20467;-77
2024/04/17 05:52:49;;;;;;;6.47;3.70;;;15.80;49.40;;;;;;5566028;25;20511;-77
2024/04/17 05:55:19;;;;;;;4.27;3.20;;;15.80;49.80;;;;;;5554161;25;20455;-77
2024/04/17 05:57:49;;;;;;;9.43;4.90;;;15.90;49.60;;;;;;5566390;25;20459;-78
2024/04/17 06:00:17;;;;;;;6.73;3.90;;;15.90;49.90;;;;;;5566678;25;20574;-77
2024/04/17 06:02:47;;;;;;;7.17;3.80;;;16.00;49.60;;;;;;5565269;25;20534;-76
2024/04/17 06:05:15;;;;;;;9.10;4.40;;;16.00;49.70;;;;;;5566076;25;20507;-77
2024/04/17 06:07:45;;;;;;;5.33;3.20;;;16.00;49.60;;;;;;5565423;25;20456;-76
2024/04/17 06:10:21;;;;;;;5.50;3.80;;;16.10;49.60;;;;;;5565528;25;20494;-78
2024/04/17 06:12:51;;;;;;;5.03;3.33;;;16.20;49.80;;;;;;5566891;25;20568;-77
2024/04/17 06:15:19;;;;;;;9.03;4.10;;;16.20;49.50;;;;;;5566785;25;20507;-76
2024/04/17 06:17:49;;;;;;;5.80;3.83;;;16.30;49.70;;;;;;5565528;25;20451;-76
2024/04/17 06:20:16;;;;;;;6.20;3.60;;;16.30;49.60;;;;;;5558194;25;20519;-76
2024/04/17 06:22:48;;;;;;;6.27;3.67;;;16.40;49.70;;;;;;5561559;25;20449;-77
2024/04/17 06:25:15;;;;;;;5.67;3.57;;;16.50;49.60;;;;;;5566422;25;20938;-76
2024/04/17 06:27:52;;;;;;;5.93;3.20;;;16.60;49.50;;;;;;5566271;25;20571;-74
2024/04/17 06:30:20;;;;;;;5.33;3.20;;;16.70;49.40;;;;;;5566298;25;20534;-76
2024/04/17 06:32:50;;;;;;;7.33;3.97;;;16.90;49.40;;;;;;5565703;25;20516;-77
2024/04/17 06:35:18;;;;;;;6.17;3.63;;;17.00;49.50;;;;;;5559034;25;20563;-77
2024/04/17 06:37:48;;;;;;;5.60;3.80;;;17.00;49.30;;;;;;5561787;25;20535;-77
2024/04/17 06:40:19;;;;;;;4.57;3.43;;;17.10;49.20;;;;;;5565295;25;20573;-77
2024/04/17 06:42:52;;;;;;;5.63;3.53;;;17.30;49.20;;;;;;5565510;25;20471;-77
2024/04/17 06:45:19;;;;;;;6.87;3.27;;;17.30;49.10;;;;;;5564995;25;20456;-77
2024/04/17 06:47:49;;;;;;;6.33;3.47;;;17.40;49.20;;;;;;5564545;25;21011;-77
2024/04/17 06:50:17;;;;;;;6.20;3.70;;;17.50;49.20;;;;;;5559877;25;20468;-76
2024/04/17 06:52:47;;;;;;;7.30;4.13;;;17.50;49.20;;;;;;5559433;25;20464;-77
2024/04/17 06:55:18;;;;;;;5.67;3.53;;;17.60;49.30;;;;;;5565061;25;20507;-77
2024/04/17 06:57:51;;;;;;;3.90;3.13;;;17.70;49.40;;;;;;5564252;25;20471;-80
2024/04/17 07:00:20;;;;;;;5.60;3.80;;;17.80;49.50;;;;;;5564408;25;20514;-75
2024/04/17 07:02:54;;;;;;;7.23;3.50;;;17.80;49.40;;;;;;5563740;25;20455;-76
2024/04/17 07:05:31;;;;;;;8.30;3.60;;;17.90;49.60;;;;;;5565100;25;20447;-77
2024/04/17 07:08:06;;;;;;;4.60;3.10;;;18.10;49.80;;;;;;5595926;21;20571;-74
2024/04/17 07:11:05;;;;;;;4.10;3.23;;;18.10;49.70;;;;;;5403288;26;20485;-77
2024/04/17 07:14:03;;;;;;;5.23;3.20;;;18.20;49.90;;;;;;5408488;26;20522;-75
2024/04/17 07:16:34;;;;;;;3.80;3.10;;;18.30;49.80;;;;;;5416114;26;20560;-77
2024/04/17 07:19:04;;;;;;;5.43;3.13;;;18.40;49.70;;;;;;5386679;26;20469;-75
2024/04/17 07:21:31;;;;;;;7.20;3.70;;;18.50;49.70;;;;;;5416443;26;20448;-78
2024/04/17 07:24:03;;;;;;;2.80;2.60;;;18.50;49.60;;;;;;5419194;26;21114;-77
2024/04/17 07:26:33;;;;;;;4.40;3.00;;;18.60;49.70;;;;;;5417373;26;20460;-78
2024/04/17 07:29:05;;;;;;;5.20;2.93;;;18.60;49.70;;;;;;5416312;26;20585;-77
2024/04/17 07:31:33;;;;;;;4.20;3.00;;;18.70;49.80;;;;;;5416683;26;20509;-78
2024/04/17 07:34:03;;;;;;;6.30;3.67;;;18.70;49.80;;;;;;5416174;26;20472;-78
2024/04/17 07:36:33;;;;;;;4.70;3.20;;;18.80;49.90;;;;;;5409739;26;20469;-79
2024/04/17 07:39:03;;;;;;;4.67;3.10;;;18.80;49.70;;;;;;5416929;26;20469;-77
2024/04/17 07:41:30;;;;;;;4.10;3.13;;;18.80;49.60;;;;;;5415971;26;20484;-77
2024/04/17 07:44:00;;;;;;;4.70;3.20;;;18.90;49.80;;;;;;5416081;26;20480;-75
2024/04/17 07:46:33;;;;;;;7.07;2.63;;;18.90;49.80;;;;;;5415976;26;20464;-76
2024/04/17 07:49:03;;;;;;;4.20;2.97;;;19.00;49.80;;;;;;5416023;26;20505;-78
2024/04/17 07:52:11;;;;;;;3.43;2.80;;;19.00;49.70;;;;;;5418921;26;20456;-77
2024/04/17 07:59:20;;;;;;;2.87;2.60;;;19.20;49.90;;;;;;5401678;26;20476;-79
2024/04/17 08:09:22;;;;;;;3.67;2.70;;;19.40;50.10;;;;;;5128621;27;20487;-78
2024/04/17 08:15:12;;;;;;;3.30;2.63;;;19.60;50.20;;;;;;5089577;27;20472;-78
2024/04/17 08:17:53;;;;;;;3.90;2.80;;;19.70;50.60;;;;;;5198908;27;20482;-79
2024/04/17 08:20:32;;;;;;;6.80;3.07;;;19.80;50.10;;;;;;5208928;27;20453;-78
2024/04/17 08:23:03;;;;;;;3.73;2.33;;;19.90;50.00;;;;;;5215063;27;20523;-77
2024/04/17 08:25:36;;;;;;;9.90;3.37;;;20.00;50.00;;;;;;5199571;27;20620;-77
2024/04/17 08:28:03;;;;;;;8.43;2.40;;;20.00;50.00;;;;;;5206459;27;20571;-76
2024/04/17 08:30:34;;;;;;;3.13;2.83;;;20.10;50.10;;;;;;5209061;27;20842;-78
2024/04/17 08:33:01;;;;;;;3.13;2.40;;;20.20;50.00;;;;;;5367264;26;20595;-78
2024/04/17 08:35:31;;;;;;;3.80;2.77;;;20.30;50.00;;;;;;5373556;26;20538;-75
2024/04/17 08:37:59;;;;;;;3.00;2.40;;;20.30;49.90;;;;;;5379760;26;20546;-77
2024/04/17 08:40:29;;;;;;;3.37;2.47;;;20.30;49.90;;;;;;5375243;26;20467;-77
2024/04/17 08:43:02;;;;;;;3.23;2.60;;;20.40;50.00;;;;;;5364408;26;20531;-77
2024/04/17 08:45:33;;;;;;;6.10;2.47;;;20.40;50.00;;;;;;5365354;26;20594;-77
2024/04/17 08:48:18;;;;;;;3.13;2.47;;;20.40;50.00;;;;;;5375300;26;20537;-75
2024/04/17 08:50:45;;;;;;;3.33;2.30;;;20.30;50.00;;;;;;5382950;26;20572;-76
2024/04/17 08:53:19;;;;;;;5.70;2.10;;;20.30;50.30;;;;;;5382415;26;20557;-77
2024/04/17 08:55:46;;;;;;;5.07;2.57;;;20.30;50.40;;;;;;5381467;26;20549;-78
2024/04/17 08:58:18;;;;;;;4.00;2.87;;;20.30;50.40;;;;;;5380548;26;21078;-75
2024/04/17 09:00:47;;;;;;;2.70;2.50;;;20.30;50.30;;;;;;5382353;26;20481;-76
2024/04/17 09:03:23;;;;;;;2.53;2.33;;;20.40;50.30;;;;;;5382111;26;20486;-77
2024/04/17 09:05:55;;;;;;;2.13;1.93;;;20.50;50.20;;;;;;5381813;26;20470;-76
2024/04/17 09:08:24;;;;;;;2.30;2.13;;;20.50;50.20;;;;;;5375723;26;20497;-78
2024/04/17 09:10:55;;;;;;;4.20;2.30;;;20.50;50.10;;;;;;5381742;26;20529;-78
2024/04/17 09:13:26;;;;;;;2.17;2.07;;;20.60;50.20;;;;;;5381097;26;20465;-79
2024/04/17 09:16:03;;;;;;;4.93;2.30;;;20.70;50.20;;;;;;5378640;26;20524;-75
2024/04/17 09:18:31;;;;;;;2.37;2.23;;;20.80;50.30;;;;;;5383625;26;20490;-78
2024/04/17 09:21:03;;;;;;;2.40;2.20;;;20.90;50.40;;;;;;5383496;26;20450;-78
2024/04/17 09:23:30;;;;;;;2.70;2.37;;;21.00;50.30;;;;;;5348449;26;20507;-77
2024/04/17 09:26:01;;;;;;;5.93;2.30;;;21.10;50.30;;;;;;5374244;26;20518;-77
2024/04/17 09:28:33;;;;;;;2.63;2.03;;;21.20;50.20;;;;;;5387964;26;20478;-78
2024/04/17 09:31:05;;;;;;;2.50;2.30;;;21.30;50.20;;;;;;5391527;26;20472;-77
2024/04/17 09:33:32;;;;;;;2.60;2.03;;;21.50;50.10;;;;;;5371229;26;20555;-77
2024/04/17 09:36:05;;;;;;;3.30;2.60;;;21.60;50.20;;;;;;5392030;26;20497;-76
2024/04/17 09:38:35;;;;;;;4.17;2.60;;;21.80;50.20;;;;;;5385493;26;20531;-77
2024/04/17 09:41:03;;;;;;;4.10;2.63;;;21.90;50.10;;;;;;5379569;26;21013;-77
2024/04/17 09:43:36;;;;;;;2.20;2.00;;;21.90;49.90;;;;;;5375355;26;20467;-77
2024/04/17 09:46:06;;;;;;;2.97;2.40;;;22.10;50.10;;;;;;5391787;26;20587;-77
2024/04/17 09:48:41;;;;;;;2.97;2.33;;;22.20;50.10;;;;;;5381104;26;20573;-77
2024/04/17 09:51:09;;;;;;;2.90;2.47;;;22.40;50.10;;;;;;5380306;26;20466;-80
2024/04/17 09:53:40;;;;;;;2.07;1.90;;;22.60;50.10;;;;;;5379885;26;20446;-77
2024/04/17 09:56:07;;;;;;;7.90;2.13;;;22.70;49.90;;;;;;5380749;26;20524;-77
2024/04/17 09:58:42;;;;;;;2.93;1.80;;;22.80;49.80;;;;;;5392300;26;20555;-79
2024/04/17 10:01:22;;;;;;;7.00;2.50;;;23.00;49.80;;;;;;5377363;26;20517;-78
2024/04/17 10:03:52;;;;;;;2.60;1.90;;;23.10;49.50;;;;;;5380209;26;20474;-80
2024/04/17 10:06:21;;;;;;;4.63;2.50;;;23.20;49.40;;;;;;5390874;26;20474;-79
2024/04/17 10:08:51;;;;;;;2.27;2.03;;;23.20;49.30;;;;;;5387627;26;20474;-77
2024/04/17 10:11:18;;;;;;;2.60;1.67;;;23.30;49.50;;;;;;5379207;26;20486;-77
2024/04/17 10:13:51;;;;;;;2.20;2.00;;;23.50;49.60;;;;;;5392918;26;20473;-79
2024/04/17 10:16:19;;;;;;;2.30;2.10;;;23.60;49.40;;;;;;5370857;26;20502;-78
2024/04/17 10:18:49;;;;;;;2.00;1.90;;;23.70;49.40;;;;;;5393056;26;20551;-78
2024/04/17 10:21:17;;;;;;;1.77;1.67;;;23.90;49.40;;;;;;5388461;26;20545;-77
2024/04/17 10:23:49;;;;;;;2.73;1.87;;;24.00;49.10;;;;;;5384690;26;20474;-76
2024/04/17 10:26:16;;;;;;;2.70;1.93;;;24.10;49.20;;;;;;5384833;26;20549;-78
2024/04/17 10:28:55;;;;;;;2.07;1.67;;;24.30;49.00;;;;;;5398439;26;20482;-78
2024/04/17 10:31:32;;;;;;;1.90;1.80;;;24.30;48.70;;;;;;5370869;26;20554;-77
2024/04/17 10:34:03;;;;;;;2.10;1.70;;;24.40;48.60;;;;;;5373253;26;20450;-77
2024/04/17 10:36:30;;;;;;;2.00;1.80;;;24.40;48.50;;;;;;5390797;26;20486;-77
2024/04/17 10:39:01;;;;;;;2.27;1.77;;;24.40;48.50;;;;;;5395722;26;20544;-77
2024/04/17 10:41:28;;;;;;;2.07;1.87;;;24.40;48.60;;;;;;5377443;26;20497;-77
2024/04/17 10:44:05;;;;;;;1.70;1.60;;;24.40;48.60;;;;;;5370327;26;20511;-76
2024/04/17 10:46:37;;;;;;;2.10;1.87;;;24.50;48.70;;;;;;5379207;26;20506;-77
2024/04/17 10:49:09;;;;;;;2.87;2.00;;;24.50;48.60;;;;;;5369283;26;20463;-77
2024/04/17 10:51:37;;;;;;;3.37;1.83;;;24.60;48.60;;;;;;5361062;26;20535;-76
2024/04/17 10:54:08;;;;;;;1.93;1.67;;;24.60;48.40;;;;;;5379976;26;21006;-76
2024/04/17 10:56:35;;;;;;;2.67;1.30;;;24.60;48.30;;;;;;5374645;26;20878;-79
2024/04/17 10:59:10;;;;;;;1.97;1.77;;;24.60;48.90;;;;;;5362207;26;20601;-76
2024/04/17 11:01:37;;;;;;;2.83;1.60;;;24.60;48.20;;;;;;5368230;26;20477;-76
2024/04/17 11:04:09;;;;;;;4.90;1.60;;;24.60;48.10;;;;;;5381430;26;20481;-76
2024/04/17 11:06:38;;;;;;;2.07;1.73;;;24.50;48.10;;;;;;5377812;26;20542;-80
2024/04/17 11:09:09;;;;;;;2.23;1.63;;;24.30;48.20;;;;;;5373844;26;20484;-77
2024/04/17 11:11:44;;;;;;;3.83;2.30;;;24.20;48.30;;;;;;5375854;26;20473;-75
2024/04/17 11:14:19;;;;;;;1.53;1.43;;;24.10;48.50;;;;;;5369218;26;20490;-76
2024/04/17 11:16:47;;;;;;;4.40;1.77;;;23.90;48.60;;;;;;5385639;26;20485;-76
2024/04/17 11:19:18;;;;;;;2.77;1.97;;;23.80;48.80;;;;;;5375388;26;20546;-77
2024/04/17 11:21:49;;;;;;;2.03;1.80;;;23.70;49.00;;;;;;5390736;26;20481;-76
2024/04/17 11:24:21;;;;;;;2.60;1.57;;;23.50;49.00;;;;;;5381215;26;20542;-77
2024/04/17 11:26:49;;;;;;;1.90;1.77;;;23.40;49.20;;;;;;5374976;26;20594;-77
2024/04/17 11:29:22;;;;;;;3.80;2.13;;;23.30;49.30;;;;;;5370600;26;20474;-77
2024/04/17 11:32:07;;;;;;;2.70;1.60;;;23.20;49.50;;;;;;5374423;26;20487;-77
2024/04/17 11:34:42;;;;;;;4.43;1.90;;;23.20;49.60;;;;;;5370554;26;20610;-79
2024/04/17 11:37:10;;;;;;;3.60;1.90;;;23.10;49.60;;;;;;5378396;26;20587;-77
2024/04/17 11:39:41;;;;;;;2.67;2.00;;;23.00;49.60;;;;;;5363604;26;20472;-79
2024/04/17 11:42:15;;;;;;;2.67;1.53;;;23.00;49.70;;;;;;5366572;26;20561;-76
2024/04/17 11:44:50;;;;;;;3.10;1.60;;;23.00;49.80;;;;;;5376249;26;20861;-76
2024/04/17 11:47:20;;;;;;;1.77;1.60;;;22.90;49.80;;;;;;5367719;26;20531;-76
2024/04/17 11:49:51;;;;;;;2.13;1.60;;;22.90;49.80;;;;;;5352384;26;20827;-77
2024/04/17 11:52:18;;;;;;;1.93;1.73;;;22.80;49.70;;;;;;5371365;26;20521;-78
2024/04/17 11:54:48;;;;;;;3.90;1.77;;;22.80;49.70;;;;;;5374198;26;20482;-79
2024/04/17 11:57:15;;;;;;;4.10;1.90;;;22.70;49.70;;;;;;5371921;26;20486;-77
2024/04/17 11:59:49;;;;;;;1.70;1.60;;;22.70;49.80;;;;;;5370904;26;20493;-79
2024/04/17 12:02:16;;;;;;;2.77;1.63;;;22.60;49.70;;;;;;5364617;26;20479;-78
2024/04/17 12:04:47;;;;;;;2.83;1.60;;;22.60;49.70;;;;;;5366788;26;20490;-78
2024/04/17 12:07:14;;;;;;;2.03;1.60;;;22.60;49.80;;;;;;5385576;26;20530;-76
2024/04/17 12:09:48;;;;;;;2.43;1.87;;;22.60;49.80;;;;;;5361881;26;20478;-76
2024/04/17 12:12:16;;;;;;;1.90;1.80;;;22.60;49.60;;;;;;5381383;26;20478;-77
2024/04/17 12:14:45;;;;;;;3.27;2.00;;;22.70;49.80;;;;;;5383466;26;20511;-77
2024/04/17 12:17:15;;;;;;;3.57;1.70;;;22.80;49.70;;;;;;5384813;26;20575;-76
2024/04/17 12:19:45;;;;;;;4.87;1.70;;;23.00;49.70;;;;;;5372791;26;20536;-77
2024/04/17 12:22:12;;;;;;;5.03;1.80;;;23.80;51.10;;;;;;5373839;26;20545;-78
2024/04/17 12:27:28;;;;;;;2.60;1.70;;;24.20;48.10;;;;;;5368472;26;20504;-78
2024/04/17 12:29:58;;;;;;;3.00;1.70;;;24.10;47.80;;;;;;5369426;26;20604;-77
2024/04/17 12:32:31;;;;;;;1.80;1.60;;;24.10;47.70;;;;;;5370781;26;20474;-79
2024/04/17 12:35:02;;;;;;;2.03;1.50;;;24.10;47.80;;;;;;5371623;26;20454;-78
2024/04/17 12:37:32;;;;;;;1.93;1.70;;;24.10;47.90;;;;;;5369061;26;20514;-78
2024/04/17 12:40:02;;;;;;;1.80;1.70;;;24.40;48.70;;;;;;5362891;26;20562;-78
2024/04/17 12:42:32;;;;;;;3.43;1.90;;;26.30;47.40;;;;;;5366613;26;20582;-78
2024/04/17 12:45:02;;;;;;;1.73;1.63;;;26.60;45.30;;;;;;5380904;26;20515;-77
2024/04/17 12:47:35;;;;;;;1.63;1.40;;;27.90;45.80;;;;;;5370980;26;20466;-80
2024/04/17 12:50:05;;;;;;;3.90;1.70;;;27.80;42.50;;;;;;5376888;26;20458;-76
2024/04/17 12:52:35;;;;;;;1.53;1.43;;;27.40;42.80;;;;;;5374547;26;20452;-78
2024/04/17 12:55:06;;;;;;;2.90;1.90;;;26.90;43.30;;;;;;5378372;26;20485;-76
2024/04/17 13:00:20;;;;;;;1.60;1.50;;;26.10;44.50;;;;;;5333149;26;20491;-80
2024/04/17 13:02:50;;;;;;;3.80;1.93;;;25.70;44.90;;;;;;5341044;26;20564;-76
2024/04/17 13:05:21;;;;;;;3.50;1.70;;;25.50;45.50;;;;;;5342782;26;20550;-76
2024/04/17 13:07:48;;;;;;;8.30;1.90;;;25.60;46.50;;;;;;5341042;26;20495;-78
2024/04/17 13:10:20;;;;;;;2.80;1.60;;;26.10;45.50;;;;;;5342702;26;20602;-76
2024/04/17 13:12:47;;;;;;;2.27;1.80;;;25.80;45.20;;;;;;5341601;26;20451;-76
2024/04/17 13:15:21;;;;;;;2.60;1.87;;;25.60;45.60;;;;;;5341840;26;20451;-76
2024/04/17 13:18:03;;;;;;;2.30;2.10;;;25.50;45.80;;;;;;5339632;26;20572;-77
2024/04/17 13:20:34;;;;;;;1.87;1.77;;;25.20;46.20;;;;;;5337634;26;20507;-76
2024/04/17 13:23:03;;;;;;;1.30;1.20;;;25.00;46.30;;;;;;5345529;26;20576;-79
2024/04/17 13:25:45;;;;;;;6.27;2.03;;;24.80;46.80;;;;;;5342699;26;20566;-77
2024/04/17 13:28:16;;;;;;;2.40;1.67;;;24.50;47.10;;;;;;5340105;26;20989;-81
2024/04/17 13:30:43;;;;;;;2.60;1.73;;;24.40;47.50;;;;;;5332362;26;20491;-77
2024/04/17 13:33:16;;;;;;;2.93;1.57;;;24.20;47.60;;;;;;5339009;26;20482;-76
2024/04/17 13:35:43;;;;;;;3.30;2.00;;;24.10;47.80;;;;;;5345053;26;20572;-77
2024/04/17 13:38:13;;;;;;;2.10;1.60;;;24.00;48.00;;;;;;5343839;26;20440;-76